createdAt,value
2017-06-29T00:01:26.326Z,24.57
2017-06-29T00:03:53.855Z,24.52
2017-06-29T00:09:04.043Z,24.58
2017-06-29T00:11:31.654Z,24.75
2017-06-29T00:13:59.156Z,24.70
2017-06-29T00:16:27.380Z,24.55
2017-06-29T00:18:59.795Z,24.53
2017-06-29T00:21:28.425Z,24.39
2017-06-29T00:26:23.845Z,24.01
2017-06-29T00:28:52.028Z,24.29
2017-06-29T00:31:20.187Z,24.27
2017-06-29T00:33:48.308Z,24.34
2017-06-29T00:36:16.488Z,24.63
2017-06-29T00:38:44.115Z,24.74
2017-06-29T00:41:11.628Z,25.01
2017-06-29T00:43:39.147Z,24.64
2017-06-29T00:46:06.728Z,24.66
2017-06-29T00:48:34.242Z,24.93
2017-06-29T00:51:01.768Z,24.84
2017-06-29T00:53:29.339Z,24.74
2017-06-29T00:55:56.850Z,24.81
2017-06-29T00:58:24.394Z,24.61
2017-06-29T01:00:52.005Z,24.68
2017-06-29T01:03:19.504Z,24.31
2017-06-29T01:05:47.042Z,24.33
2017-06-29T01:08:14.603Z,24.25
2017-06-29T01:10:42.115Z,24.06
2017-06-29T01:13:09.650Z,24.22
2017-06-29T01:15:37.229Z,23.98
2017-06-29T01:18:05.115Z,24.15
2017-06-29T01:20:32.632Z,24.39
2017-06-29T01:23:00.182Z,24.49
2017-06-29T01:25:27.698Z,24.39
2017-06-29T01:27:55.199Z,23.97
2017-06-29T01:30:22.765Z,23.97
2017-06-29T01:32:50.287Z,24.17
2017-06-29T01:35:17.823Z,23.94
2017-06-29T01:37:45.422Z,23.94
2017-06-29T01:40:12.933Z,24.04
2017-06-29T01:42:40.438Z,23.88
2017-06-29T01:45:08.018Z,24.12
2017-06-29T01:47:35.548Z,24.51
2017-06-29T01:50:03.121Z,24.49
2017-06-29T01:52:30.683Z,24.60
2017-06-29T01:54:58.194Z,24.50
2017-06-29T01:57:25.734Z,24.28
2017-06-29T01:59:53.277Z,24.29
2017-06-29T02:02:20.873Z,24.61
2017-06-29T02:04:48.386Z,24.58
2017-06-29T02:07:15.931Z,24.32
2017-06-29T02:09:43.494Z,24.52
2017-06-29T02:12:11.003Z,24.41
2017-06-29T02:14:38.533Z,24.75
2017-06-29T02:17:06.109Z,24.79
2017-06-29T02:19:33.936Z,24.84
2017-06-29T02:22:01.452Z,24.80
2017-06-29T02:24:29.114Z,24.82
2017-06-29T02:26:56.631Z,24.65
2017-06-29T02:29:24.145Z,24.59
2017-06-29T02:31:51.699Z,24.32
2017-06-29T02:34:19.243Z,24.72
2017-06-29T02:36:46.753Z,24.56
2017-06-29T02:39:14.308Z,24.16
2017-06-29T02:41:41.835Z,24.58
2017-06-29T02:44:09.400Z,24.75
2017-06-29T02:46:36.960Z,24.88
2017-06-29T02:49:04.483Z,24.26
2017-06-29T02:51:32.015Z,24.45
2017-06-29T02:53:59.592Z,24.18
2017-06-29T02:56:27.096Z,24.55
2017-06-29T02:58:55.194Z,24.80
2017-06-29T03:01:22.762Z,24.86
2017-06-29T03:03:50.271Z,24.87
2017-06-29T03:06:17.779Z,24.68
2017-06-29T03:08:45.360Z,24.68
2017-06-29T03:11:12.885Z,24.80
2017-06-29T03:13:40.389Z,24.72
2017-06-29T03:16:07.951Z,24.75
2017-06-29T03:18:35.466Z,24.61
2017-06-29T03:21:02.968Z,24.41
2017-06-29T03:23:30.524Z,24.65
2017-06-29T03:25:58.032Z,24.94
2017-06-29T03:28:25.541Z,24.93
2017-06-29T03:30:53.114Z,25.05
2017-06-29T03:33:20.674Z,25.11
2017-06-29T03:35:48.184Z,25.10
2017-06-29T03:38:15.745Z,25.13
2017-06-29T03:40:43.254Z,25.21
2017-06-29T03:43:10.765Z,25.16
2017-06-29T03:45:38.331Z,25.25
2017-06-29T03:48:05.846Z,25.27
2017-06-29T03:50:33.372Z,24.69
2017-06-29T03:53:00.921Z,25.37
2017-06-29T03:55:28.443Z,25.12
2017-06-29T03:57:55.952Z,25.38
2017-06-29T04:00:23.504Z,25.37
2017-06-29T04:02:51.024Z,25.48
2017-06-29T04:05:18.535Z,25.39
2017-06-29T04:07:46.098Z,25.15
2017-06-29T04:10:13.620Z,24.56
2017-06-29T04:12:41.137Z,24.40
2017-06-29T04:15:08.690Z,24.13
2017-06-29T04:17:36.220Z,24.66
2017-06-29T04:20:03.735Z,24.57
2017-06-29T04:22:31.315Z,24.49
2017-06-29T04:24:58.987Z,25.20
2017-06-29T04:27:26.506Z,25.59
2017-06-29T04:29:54.081Z,25.78
2017-06-29T04:32:21.677Z,25.86
2017-06-29T04:34:49.205Z,26.03
2017-06-29T04:37:16.717Z,26.09
2017-06-29T04:39:44.309Z,26.04
2017-06-29T04:42:11.839Z,25.97
2017-06-29T04:44:39.347Z,25.99
2017-06-29T04:47:06.924Z,26.05
2017-06-29T04:49:34.487Z,25.88
2017-06-29T04:52:01.995Z,26.11
2017-06-29T04:54:29.562Z,26.26
2017-06-29T04:56:57.073Z,26.28
2017-06-29T04:59:24.581Z,26.38
2017-06-29T05:01:52.133Z,26.43
2017-06-29T05:04:19.668Z,26.33
2017-06-29T05:06:47.172Z,26.29
2017-06-29T05:09:15.002Z,26.44
2017-06-29T05:11:42.509Z,26.60
2017-06-29T05:14:10.042Z,26.68
2017-06-29T05:16:37.644Z,26.44
2017-06-29T05:19:05.149Z,26.68
2017-06-29T05:21:32.685Z,26.46
2017-06-29T05:24:00.231Z,26.01
2017-06-29T05:26:27.744Z,26.00
2017-06-29T05:28:55.264Z,26.20
2017-06-29T05:31:22.856Z,26.54
2017-06-29T05:33:50.378Z,26.51
2017-06-29T05:36:17.901Z,26.11
2017-06-29T05:38:45.494Z,26.46
2017-06-29T05:41:13.002Z,26.71
2017-06-29T05:43:40.519Z,26.49
2017-06-29T05:46:08.165Z,26.72
2017-06-29T05:48:35.761Z,26.91
2017-06-29T05:51:03.305Z,26.97
2017-06-29T05:53:30.866Z,27.08
2017-06-29T05:55:58.401Z,27.22
2017-06-29T05:58:25.929Z,27.33
2017-06-29T06:00:53.488Z,27.12
2017-06-29T06:03:20.998Z,26.72
2017-06-29T06:05:48.526Z,26.23
2017-06-29T06:08:16.086Z,26.62
2017-06-29T06:10:43.630Z,26.71
2017-06-29T06:13:11.160Z,27.00
2017-06-29T06:15:38.737Z,27.48
2017-06-29T06:18:06.290Z,26.98
2017-06-29T06:20:33.803Z,26.66
2017-06-29T06:23:01.362Z,26.76
2017-06-29T06:25:28.892Z,26.65
2017-06-29T06:27:56.413Z,26.95
2017-06-29T06:30:24.112Z,27.00
2017-06-29T06:32:51.619Z,27.28
2017-06-29T06:35:19.148Z,27.01
2017-06-29T06:37:46.717Z,27.04
2017-06-29T06:40:14.251Z,26.99
2017-06-29T06:42:41.763Z,27.43
2017-06-29T06:45:09.322Z,27.27
2017-06-29T06:47:36.841Z,27.32
2017-06-29T06:50:04.345Z,27.08
2017-06-29T06:52:31.915Z,26.86
2017-06-29T06:54:59.421Z,27.21
2017-06-29T06:57:26.920Z,27.13
2017-06-29T06:59:54.474Z,27.26
2017-06-29T07:02:22.039Z,27.82
2017-06-29T07:04:49.557Z,28.15
2017-06-29T07:07:17.070Z,27.87
2017-06-29T07:09:44.626Z,28.23
2017-06-29T07:12:12.141Z,28.20
2017-06-29T07:14:40.037Z,28.55
2017-06-29T07:17:07.595Z,28.84
2017-06-29T07:19:35.123Z,29.37
2017-06-29T07:22:02.670Z,29.53
2017-06-29T07:24:30.236Z,29.05
2017-06-29T07:26:57.755Z,29.14
2017-06-29T07:29:25.302Z,29.48
2017-06-29T07:31:52.904Z,28.84
2017-06-29T07:34:20.476Z,29.17
2017-06-29T07:36:47.997Z,29.71
2017-06-29T07:39:15.602Z,30.26
2017-06-29T07:41:43.105Z,29.95
2017-06-29T07:44:10.670Z,29.77
2017-06-29T07:46:38.241Z,30.20
2017-06-29T07:49:05.760Z,30.45
2017-06-29T07:51:33.307Z,30.63
2017-06-29T07:54:00.858Z,30.06
2017-06-29T07:56:28.382Z,29.45
2017-06-29T07:58:55.902Z,30.19
2017-06-29T08:01:23.516Z,30.43
2017-06-29T08:03:51.030Z,30.75
2017-06-29T08:06:18.555Z,30.97
2017-06-29T08:08:46.112Z,31.07
2017-06-29T08:11:13.617Z,30.73
2017-06-29T08:13:41.143Z,30.76
2017-06-29T08:16:08.709Z,31.11
2017-06-29T08:18:36.208Z,30.85
2017-06-29T08:21:03.709Z,30.94
2017-06-29T08:23:31.271Z,31.29
2017-06-29T08:25:58.802Z,30.93
2017-06-29T08:28:26.306Z,31.09
2017-06-29T08:30:53.921Z,30.33
2017-06-29T08:33:21.428Z,30.09
2017-06-29T08:35:48.957Z,29.91
2017-06-29T08:38:16.522Z,30.16
2017-06-29T08:40:44.047Z,30.52
2017-06-29T08:43:11.577Z,29.90
2017-06-29T08:45:39.120Z,29.89
2017-06-29T08:48:06.652Z,30.00
2017-06-29T08:50:34.170Z,30.74
2017-06-29T08:53:01.746Z,30.27
2017-06-29T08:55:29.268Z,30.63
2017-06-29T08:57:56.782Z,30.96
2017-06-29T09:00:24.357Z,30.76
2017-06-29T09:02:51.865Z,31.42
2017-06-29T09:05:19.386Z,31.92
2017-06-29T09:07:46.988Z,31.70
2017-06-29T09:10:14.489Z,31.69
2017-06-29T09:12:42.000Z,31.43
2017-06-29T09:15:09.562Z,30.75
2017-06-29T09:17:37.068Z,31.17
2017-06-29T09:20:04.590Z,31.78
2017-06-29T09:22:32.155Z,31.73
2017-06-29T09:24:59.661Z,32.02
2017-06-29T09:27:27.179Z,31.97
2017-06-29T09:29:54.746Z,31.57
2017-06-29T09:32:22.305Z,31.86
2017-06-29T09:34:49.822Z,32.31
2017-06-29T09:37:17.333Z,32.36
2017-06-29T09:39:44.879Z,31.96
2017-06-29T09:42:12.382Z,32.63
2017-06-29T09:44:39.898Z,32.62
2017-06-29T09:47:07.453Z,32.30
2017-06-29T09:49:34.969Z,32.65
2017-06-29T09:52:02.524Z,32.43
2017-06-29T09:54:30.071Z,32.54
2017-06-29T09:56:57.593Z,32.68
2017-06-29T09:59:25.123Z,32.88
2017-06-29T10:01:52.698Z,33.04
2017-06-29T10:04:20.220Z,33.29
2017-06-29T10:06:47.765Z,33.11
2017-06-29T10:09:15.334Z,33.30
2017-06-29T10:11:42.859Z,33.16
2017-06-29T10:14:10.421Z,33.70
2017-06-29T10:16:38.014Z,33.57
2017-06-29T10:19:05.545Z,33.43
2017-06-29T10:21:33.114Z,33.69
2017-06-29T10:24:00.662Z,33.89
2017-06-29T10:26:28.495Z,34.12
2017-06-29T10:28:55.999Z,34.37
2017-06-29T10:31:23.551Z,34.54
2017-06-29T10:33:51.049Z,34.74
2017-06-29T10:36:18.561Z,34.71
2017-06-29T10:38:46.119Z,34.92
2017-06-29T10:41:13.651Z,34.83
2017-06-29T10:43:41.174Z,34.83
2017-06-29T10:46:08.732Z,35.09
2017-06-29T10:48:36.252Z,35.22
2017-06-29T10:51:03.789Z,35.06
2017-06-29T10:53:31.349Z,35.17
2017-06-29T10:55:58.901Z,35.41
2017-06-29T10:58:26.427Z,34.72
2017-06-29T11:00:54.022Z,34.81
2017-06-29T11:03:21.546Z,34.90
2017-06-29T11:05:49.064Z,35.20
2017-06-29T11:08:16.620Z,34.73
2017-06-29T11:10:44.127Z,35.06
2017-06-29T11:13:11.636Z,35.16
2017-06-29T11:15:39.226Z,35.16
2017-06-29T11:18:06.729Z,35.00
2017-06-29T11:20:34.216Z,35.34
2017-06-29T11:23:01.761Z,35.46
2017-06-29T11:25:29.273Z,35.28
2017-06-29T11:27:56.812Z,35.56
2017-06-29T11:30:24.385Z,35.74
2017-06-29T11:32:51.890Z,36.17
2017-06-29T11:35:19.385Z,35.95
2017-06-29T11:37:46.975Z,35.99
2017-06-29T11:40:14.486Z,35.93
2017-06-29T11:42:42.765Z,36.15
2017-06-29T11:45:10.412Z,35.99
2017-06-29T11:47:37.948Z,35.99
2017-06-29T11:50:05.468Z,36.26
2017-06-29T11:52:33.101Z,36.26
2017-06-29T11:55:00.622Z,36.35
2017-06-29T11:57:28.132Z,35.82
2017-06-29T11:59:55.696Z,35.99
2017-06-29T12:02:23.246Z,36.17
2017-06-29T12:04:50.754Z,36.06
2017-06-29T12:07:18.261Z,36.40
2017-06-29T12:09:45.814Z,36.18
2017-06-29T12:12:13.315Z,36.17
2017-06-29T12:14:40.837Z,35.93
2017-06-29T12:17:08.387Z,35.95
2017-06-29T12:19:35.911Z,35.89
2017-06-29T12:22:03.437Z,35.91
2017-06-29T12:24:31.004Z,35.81
2017-06-29T12:26:58.538Z,36.07
2017-06-29T12:29:26.062Z,35.96
2017-06-29T12:31:53.636Z,35.78
2017-06-29T12:34:21.137Z,36.07
2017-06-29T12:36:48.658Z,35.88
2017-06-29T12:39:16.225Z,35.67
2017-06-29T12:41:43.744Z,35.78
2017-06-29T12:44:11.247Z,35.65
2017-06-29T12:46:38.805Z,35.80
2017-06-29T12:49:06.374Z,35.73
2017-06-29T12:51:33.894Z,35.90
2017-06-29T12:54:01.452Z,35.81
2017-06-29T12:56:28.978Z,35.88
2017-06-29T12:58:56.496Z,35.86
2017-06-29T13:01:24.049Z,35.84
2017-06-29T13:03:51.558Z,36.04
2017-06-29T13:06:19.071Z,36.04
2017-06-29T13:08:46.625Z,35.95
2017-06-29T13:11:14.139Z,35.86
2017-06-29T13:13:41.635Z,35.83
2017-06-29T13:16:09.197Z,35.78
2017-06-29T13:18:36.721Z,35.65
2017-06-29T13:21:04.255Z,35.61
2017-06-29T13:23:31.825Z,35.77
2017-06-29T13:25:59.393Z,35.74
2017-06-29T13:28:26.913Z,35.68
2017-06-29T13:30:54.494Z,35.71
2017-06-29T13:33:22.049Z,35.70
2017-06-29T13:35:49.556Z,35.74
2017-06-29T13:38:17.107Z,35.56
2017-06-29T13:40:44.606Z,35.71
2017-06-29T13:43:12.140Z,35.72
2017-06-29T13:45:39.960Z,35.83
2017-06-29T13:48:07.494Z,35.84
2017-06-29T13:50:35.016Z,35.65
2017-06-29T13:53:02.614Z,35.45
2017-06-29T13:55:30.138Z,35.50
2017-06-29T13:57:57.658Z,35.67
2017-06-29T14:00:25.227Z,35.61
2017-06-29T14:02:52.734Z,35.64
2017-06-29T14:05:20.253Z,35.66
2017-06-29T14:07:47.827Z,35.74
2017-06-29T14:10:15.340Z,35.75
2017-06-29T14:12:42.833Z,35.66
2017-06-29T14:15:10.415Z,35.50
2017-06-29T14:17:37.945Z,35.48
2017-06-29T14:20:05.461Z,35.41
2017-06-29T14:22:33.040Z,35.46
2017-06-29T14:25:00.559Z,35.61
2017-06-29T14:27:28.403Z,35.60
2017-06-29T14:29:55.962Z,35.29
2017-06-29T14:32:24.685Z,34.92
2017-06-29T14:34:52.201Z,35.27
2017-06-29T14:37:20.269Z,35.40
2017-06-29T14:39:47.832Z,35.45
2017-06-29T14:42:15.344Z,35.53
2017-06-29T14:44:42.844Z,35.22
2017-06-29T14:47:10.422Z,34.70
2017-06-29T14:49:37.928Z,35.22
2017-06-29T14:52:05.444Z,35.24
2017-06-29T14:54:32.991Z,35.35
2017-06-29T14:57:00.499Z,35.50
2017-06-29T14:59:28.013Z,35.52
2017-06-29T15:01:55.561Z,35.37
2017-06-29T15:04:23.071Z,35.46
2017-06-29T15:06:50.592Z,35.58
2017-06-29T15:09:18.890Z,35.52
2017-06-29T15:11:46.729Z,35.56
2017-06-29T15:14:15.210Z,35.55
2017-06-29T15:16:42.788Z,35.60
2017-06-29T15:19:10.639Z,35.42
2017-06-29T15:21:38.181Z,35.35
2017-06-29T15:24:05.819Z,35.36
2017-06-29T15:26:34.825Z,35.35
2017-06-29T15:29:02.353Z,35.33
2017-06-29T15:31:29.924Z,35.39
2017-06-29T15:33:57.445Z,35.37
2017-06-29T15:36:27.661Z,35.39
2017-06-29T15:38:55.233Z,35.24
2017-06-29T15:41:23.131Z,35.15
2017-06-29T15:43:51.001Z,35.28
2017-06-29T15:46:19.729Z,35.17
2017-06-29T15:48:48.736Z,35.25
2017-06-29T15:51:16.282Z,35.14
2017-06-29T15:53:43.875Z,35.06
2017-06-29T15:56:11.725Z,34.93
2017-06-29T15:58:39.636Z,34.93
2017-06-29T16:01:07.208Z,34.98
2017-06-29T16:03:34.743Z,34.75
2017-06-29T16:06:02.282Z,34.67
2017-06-29T16:08:29.837Z,34.94
2017-06-29T16:10:57.355Z,34.75
2017-06-29T16:13:25.167Z,34.63
2017-06-29T16:15:52.794Z,34.59
2017-06-29T16:18:20.318Z,34.61
2017-06-29T16:20:48.032Z,34.69
2017-06-29T16:23:15.596Z,34.64
2017-06-29T16:25:43.117Z,34.54
2017-06-29T16:28:10.650Z,34.49
2017-06-29T16:30:38.220Z,34.48
2017-06-29T16:33:05.761Z,34.47
2017-06-29T16:35:34.621Z,34.44
2017-06-29T16:38:02.305Z,34.48
2017-06-29T16:40:30.560Z,34.41
2017-06-29T16:42:58.190Z,34.34
2017-06-29T16:45:25.778Z,34.30
2017-06-29T16:47:53.614Z,34.12
2017-06-29T16:50:21.130Z,34.30
2017-06-29T16:52:48.888Z,34.17
2017-06-29T16:55:16.734Z,34.08
2017-06-29T16:57:44.631Z,34.00
2017-06-29T17:00:12.390Z,34.05
2017-06-29T17:02:39.958Z,34.02
2017-06-29T17:05:07.531Z,34.00
2017-06-29T17:07:35.120Z,33.86
2017-06-29T17:10:03.478Z,33.87
2017-06-29T17:12:30.976Z,33.76
2017-06-29T17:14:58.543Z,33.82
2017-06-29T17:17:26.110Z,33.83
2017-06-29T17:19:53.629Z,33.72
2017-06-29T17:22:21.206Z,33.58
2017-06-29T17:24:48.714Z,33.67
2017-06-29T17:27:16.210Z,33.70
2017-06-29T17:29:43.769Z,33.61
2017-06-29T17:32:11.313Z,33.60
2017-06-29T17:34:38.850Z,33.60
2017-06-29T17:37:06.378Z,33.56
2017-06-29T17:39:33.938Z,33.41
2017-06-29T17:42:01.458Z,33.44
2017-06-29T17:44:28.980Z,33.35
2017-06-29T17:46:56.568Z,33.39
2017-06-29T17:49:24.098Z,33.38
2017-06-29T17:51:51.685Z,33.32
2017-06-29T17:54:19.295Z,33.32
2017-06-29T17:56:46.807Z,33.34
2017-06-29T17:59:14.355Z,33.21
2017-06-29T18:01:41.939Z,33.12
2017-06-29T18:04:09.468Z,33.14
2017-06-29T18:06:37.056Z,32.95
2017-06-29T18:09:05.311Z,33.20
2017-06-29T18:11:33.621Z,33.10
2017-06-29T18:14:01.180Z,33.09
2017-06-29T18:16:28.910Z,33.10
2017-06-29T18:18:56.696Z,33.08
2017-06-29T18:21:24.259Z,33.19
2017-06-29T18:23:51.870Z,33.10
2017-06-29T18:26:19.467Z,33.09
2017-06-29T18:28:47.203Z,33.04
2017-06-29T18:31:14.786Z,32.91
2017-06-29T18:33:42.327Z,32.65
2017-06-29T18:36:09.862Z,32.75
2017-06-29T18:38:37.494Z,32.73
2017-06-29T18:41:05.283Z,32.62
2017-06-29T19:08:43.048Z,32.51
2017-06-29T19:11:10.615Z,32.59
2017-06-29T19:13:38.384Z,32.57
2017-06-29T19:16:05.998Z,32.48
2017-06-29T19:18:33.582Z,32.45
2017-06-29T19:21:01.133Z,32.52
2017-06-29T19:23:28.696Z,32.36
2017-06-29T19:25:56.281Z,32.32
2017-06-29T19:28:23.823Z,32.22
2017-06-29T19:30:51.447Z,32.21
2017-06-29T19:33:19.021Z,32.16
2017-06-29T19:35:46.603Z,32.04
2017-06-29T19:38:14.189Z,32.05
2017-06-29T19:40:41.937Z,32.02
2017-06-29T19:43:09.705Z,31.96
2017-06-29T19:45:37.309Z,31.86
2017-06-29T19:48:04.868Z,31.79
2017-06-29T19:50:33.649Z,31.76
2017-06-29T19:53:01.210Z,31.69
2017-06-29T19:55:28.764Z,31.70
2017-06-29T19:57:56.324Z,31.67
2017-06-29T20:00:24.008Z,31.63
2017-06-29T20:02:51.593Z,31.76
2017-06-29T20:05:19.173Z,31.62
2017-06-29T20:07:46.770Z,31.62
2017-06-29T20:10:14.370Z,31.62
2017-06-29T20:12:41.928Z,31.70
2017-06-29T20:15:09.531Z,31.67
2017-06-29T20:17:37.143Z,31.68
2017-06-29T20:20:04.704Z,31.64
2017-06-29T20:22:32.298Z,31.62
2017-06-29T20:24:59.892Z,31.62
2017-06-29T20:27:27.704Z,31.56
2017-06-29T20:29:55.296Z,31.49
2017-06-29T20:32:22.908Z,31.48
2017-06-29T20:34:50.462Z,31.37
2017-06-29T20:37:18.064Z,31.38
2017-06-29T20:39:45.673Z,31.34
2017-06-29T20:42:13.221Z,31.37
2017-06-29T20:44:41.494Z,30.98
2017-06-29T20:47:09.067Z,30.68
2017-06-29T20:49:36.677Z,30.51
2017-06-29T20:52:04.507Z,30.32
2017-06-29T20:54:32.121Z,30.27
2017-06-29T20:56:59.644Z,29.98
2017-06-29T20:59:27.244Z,29.88
2017-06-29T21:01:54.841Z,29.83
2017-06-29T21:04:22.411Z,29.77
2017-06-29T21:06:49.968Z,29.72
2017-06-29T21:09:17.601Z,29.72
2017-06-29T21:11:45.201Z,29.68
2017-06-29T21:14:12.786Z,29.56
2017-06-29T21:16:40.431Z,29.37
2017-06-29T21:19:07.992Z,29.43
2017-06-29T21:21:35.760Z,29.44
2017-06-29T21:24:03.347Z,29.25
2017-06-29T21:26:30.900Z,29.21
2017-06-29T21:28:58.456Z,29.22
2017-06-29T21:31:26.065Z,29.24
2017-06-29T21:33:53.628Z,29.21
2017-06-29T21:36:21.153Z,29.20
2017-06-29T21:38:48.959Z,29.22
2017-06-29T21:41:16.528Z,29.15
2017-06-29T21:43:44.070Z,29.19
2017-06-29T21:46:11.665Z,29.02
2017-06-29T21:48:39.219Z,29.11
2017-06-29T21:51:06.766Z,29.00
2017-06-29T21:53:34.327Z,28.91
2017-06-29T21:56:02.261Z,28.83
2017-06-29T21:58:30.059Z,28.80
2017-06-29T22:00:57.634Z,28.82
2017-06-29T22:03:25.522Z,28.85
2017-06-29T22:05:53.096Z,28.85
2017-06-29T22:08:20.817Z,28.91
2017-06-29T22:10:48.651Z,28.87
2017-06-29T22:13:16.164Z,28.73
2017-06-29T22:15:44.280Z,28.75
2017-06-29T22:18:11.812Z,28.68
2017-06-29T22:20:39.695Z,28.65
2017-06-29T22:23:07.278Z,28.66
2017-06-29T22:25:34.846Z,28.44
2017-06-29T22:28:02.449Z,28.39
2017-06-29T22:30:30.132Z,28.46
2017-06-29T22:32:57.737Z,28.50
2017-06-29T22:35:25.323Z,28.52
2017-06-29T22:37:52.932Z,28.54
2017-06-29T22:40:20.703Z,28.48
2017-06-29T22:42:48.288Z,28.52
2017-06-29T22:45:15.894Z,28.43
2017-06-29T22:47:43.490Z,28.37
2017-06-29T22:50:11.012Z,28.26
2017-06-29T22:52:38.650Z,28.25
2017-06-29T22:55:06.250Z,28.23
2017-06-29T22:57:34.005Z,28.19
2017-06-29T23:00:01.613Z,28.13
2017-06-29T23:02:29.218Z,28.05
2017-06-29T23:04:56.817Z,27.94
2017-06-29T23:07:24.425Z,27.97
2017-06-29T23:09:52.013Z,28.06
2017-06-29T23:12:19.600Z,28.07
2017-06-29T23:14:47.194Z,28.06
2017-06-29T23:17:14.816Z,28.11
2017-06-29T23:19:42.586Z,28.15
2017-06-29T23:22:10.150Z,28.14
2017-06-29T23:24:37.751Z,28.17
2017-06-29T23:27:05.338Z,28.12
2017-06-29T23:29:32.902Z,28.09
2017-06-29T23:32:00.500Z,27.96
2017-06-29T23:34:28.421Z,27.93
2017-06-29T23:36:56.015Z,27.80
2017-06-29T23:39:23.610Z,27.80
2017-06-29T23:41:51.192Z,27.82
2017-06-29T23:44:18.969Z,27.83
2017-06-29T23:46:46.778Z,27.83
2017-06-29T23:49:14.528Z,27.87
2017-06-29T23:51:42.263Z,27.80
2017-06-29T23:54:09.879Z,27.83
2017-06-29T23:56:38.392Z,27.81
2017-06-29T23:59:06.164Z,27.74
